Time;durP1;ratioP1;P1;durP2;ratioP2;P2;SDS_P1;SDS_P2;PMS_P1;PMS_P2;Temp;Humidity;BMP_temperature;BMP_pressure;BME280_temperature;BME280_humidity;BME280_pressure;Samples;Min_cycle;Max_cycle;Signal;HPM_P1;HPM_P2
2022/05/13 00:01:08;;;;;;;5.32;2.90;;;;;;;-141.50;100.00;63355.56;5070813;28;20092;-82
2022/05/13 00:03:35;;;;;;;9.30;3.60;;;;;;;-141.50;100.00;63355.56;5053335;28;20094;-81
2022/05/13 00:06:01;;;;;;;7.95;3.42;;;;;;;-141.50;100.00;63355.56;5074668;28;20053;-80
2022/05/13 00:08:28;;;;;;;5.90;3.40;;;;;;;-141.50;100.00;63355.56;5077516;28;20088;-82
2022/05/13 00:10:55;;;;;;;7.30;3.13;;;;;;;-141.50;100.00;63355.56;5055156;28;20047;-84
2022/05/13 00:13:22;;;;;;;7.25;3.25;;;;;;;-141.50;100.00;63355.56;5055608;28;20060;-81
2022/05/13 00:15:50;;;;;;;7.32;4.03;;;;;;;-141.50;100.00;63355.56;5057381;28;20087;-81
2022/05/13 00:18:17;;;;;;;6.63;3.63;;;;;;;-141.50;100.00;63355.56;5074592;28;20086;-80
2022/05/13 00:20:43;;;;;;;10.20;3.05;;;;;;;-141.50;100.00;63355.56;5078628;28;20049;-81
2022/05/13 00:23:10;;;;;;;5.53;3.00;;;;;;;-141.50;100.00;63355.56;5076817;28;20063;-82
2022/05/13 00:25:37;;;;;;;6.45;3.13;;;;;;;-141.50;100.00;63355.56;5073179;28;20641;-80
2022/05/13 00:28:06;;;;;;;8.55;3.38;;;;;;;-141.50;100.00;63355.56;5073330;28;20048;-81
2022/05/13 00:30:37;;;;;;;7.75;3.45;;;;;;;-141.50;100.00;63355.56;5075528;28;20083;-83
2022/05/13 00:33:05;;;;;;;8.95;3.00;;;;;;;-141.50;100.00;63355.56;5075014;28;20084;-81
2022/05/13 00:35:32;;;;;;;6.75;3.80;;;;;;;-141.50;100.00;63355.56;5073367;28;20107;-82
2022/05/13 00:37:59;;;;;;;5.93;3.13;;;;;;;-141.50;100.00;63355.56;5075305;28;20092;-83
2022/05/13 00:40:25;;;;;;;5.18;3.00;;;;;;;-141.50;100.00;63355.56;5057113;28;20119;-82
2022/05/13 00:42:59;;;;;;;6.68;3.20;;;;;;;-141.50;100.00;63355.56;5058157;28;20049;-83
2022/05/13 00:45:27;;;;;;;7.95;3.50;;;;;;;-141.50;100.00;63355.56;5075960;28;20064;-82
2022/05/13 00:47:53;;;;;;;5.03;3.35;;;;;;;-141.50;100.00;63355.56;5078544;28;20075;-82
2022/05/13 00:50:20;;;;;;;9.10;3.40;;;;;;;-141.50;100.00;63355.56;5079258;28;20098;-83
2022/05/13 00:52:50;;;;;;;6.75;3.20;;;;;;;-141.50;100.00;63355.56;5076306;28;20052;-82
2022/05/13 00:55:22;;;;;;;5.95;2.97;;;;;;;-141.50;100.00;63355.56;5057762;28;20080;-82
2022/05/13 00:57:51;;;;;;;9.13;3.15;;;;;;;-141.50;100.00;63355.56;5060474;28;20068;-82
2022/05/13 01:00:18;;;;;;;6.95;3.70;;;;;;;-141.50;100.00;63355.56;5084387;28;20549;-83
2022/05/13 01:02:45;;;;;;;14.20;3.35;;;;;;;-141.50;100.00;63355.56;5072533;28;20057;-83
2022/05/13 01:05:14;;;;;;;4.10;3.00;;;;;;;-141.50;100.00;63355.56;5093935;28;20044;-82
2022/05/13 01:07:41;;;;;;;5.97;3.10;;;;;;;-141.50;100.00;63355.56;5066534;28;20319;-79
2022/05/13 01:10:14;;;;;;;4.47;3.30;;;;;;;-141.50;100.00;63355.56;5060404;28;20420;-85
2022/05/13 01:12:44;;;;;;;5.75;3.30;;;;;;;-141.50;100.00;63355.56;5075877;28;20074;-84
2022/05/13 01:15:17;;;;;;;5.18;3.30;;;;;;;-141.50;100.00;63355.56;5075289;28;20068;-82
2022/05/13 01:20:50;;;;;;;9.75;3.15;;;;;;;-141.50;100.00;63355.56;5095464;28;20086;-84
2022/05/13 01:23:30;;;;;;;11.77;3.80;;;;;;;-141.50;100.00;63355.56;5092788;28;20059;-80
2022/05/13 01:25:59;;;;;;;7.50;3.47;;;;;;;-141.50;100.00;63355.56;5082251;28;20052;-82
2022/05/13 01:28:38;;;;;;;7.22;3.17;;;;;;;-141.50;100.00;63355.56;5071813;28;20401;-81
2022/05/13 01:31:11;;;;;;;6.38;3.28;;;;;;;-141.50;100.00;63355.56;5074179;28;20692;-81
2022/05/13 01:33:40;;;;;;;7.05;3.20;;;;;;;-141.50;100.00;63355.56;5074525;28;20106;-81
2022/05/13 01:36:09;;;;;;;8.02;3.40;;;;;;;-141.50;100.00;63355.56;5055948;28;20056;-83
2022/05/13 01:38:37;;;;;;;7.75;3.22;;;;;;;-141.50;100.00;63355.56;5078459;28;20427;-84
2022/05/13 01:41:09;;;;;;;4.22;3.08;;;;;;;-141.50;100.00;63355.56;5061200;28;20528;-84
2022/05/13 01:43:37;;;;;;;6.40;3.38;;;;;;;-141.50;100.00;63355.56;5076055;28;20132;-84
2022/05/13 01:46:04;;;;;;;8.07;3.70;;;;;;;-141.50;100.00;63355.56;5074538;28;20070;-82
2022/05/13 01:48:31;;;;;;;5.80;3.08;;;;;;;-141.50;100.00;63355.56;5076391;28;20072;-83
2022/05/13 01:50:58;;;;;;;5.95;3.58;;;;;;;-141.50;100.00;63355.56;5077631;28;20101;-82
2022/05/13 01:53:24;;;;;;;6.40;3.63;;;;;;;-141.50;100.00;63355.56;5077424;28;20108;-81
2022/05/13 01:55:52;;;;;;;9.80;3.40;;;;;;;-141.50;100.00;63355.56;5062219;28;20113;-82
2022/05/13 01:58:21;;;;;;;7.28;3.33;;;;;;;-141.50;100.00;63355.56;5062911;28;20048;-81
2022/05/13 02:00:50;;;;;;;8.45;3.50;;;;;;;-141.50;100.00;63355.56;5085140;28;20040;-83
2022/05/13 02:06:05;;;;;;;8.90;3.33;;;;;;;-141.50;100.00;63355.56;5081144;28;20073;-83
2022/05/13 02:08:32;;;;;;;6.85;3.72;;;;;;;-141.50;100.00;63355.56;5079668;28;20421;-83
2022/05/13 02:10:59;;;;;;;7.20;3.53;;;;;;;-141.50;100.00;63355.56;5091282;28;20078;-81
2022/05/13 02:13:26;;;;;;;7.80;3.70;;;;;;;-141.50;100.00;63355.56;5056485;28;20091;-82
2022/05/13 02:15:53;;;;;;;8.32;3.70;;;;;;;-141.50;100.00;63355.56;5062142;28;20048;-83
2022/05/13 02:18:21;;;;;;;7.57;3.53;;;;;;;-141.50;100.00;63355.56;5073714;28;20056;-81
2022/05/13 02:20:48;;;;;;;9.35;3.70;;;;;;;-141.50;100.00;63355.56;5091880;28;20129;-82
2022/05/13 02:23:18;;;;;;;7.53;3.53;;;;;;;-141.50;100.00;63355.56;5074192;28;20079;-83
2022/05/13 02:25:44;;;;;;;6.47;3.50;;;;;;;-141.50;100.00;63355.56;5092298;28;20086;-81
2022/05/13 02:28:11;;;;;;;5.95;3.95;;;;;;;-141.50;100.00;63355.56;5092604;28;20126;-80
2022/05/13 02:30:37;;;;;;;6.55;3.67;;;;;;;-141.50;100.00;63355.56;5075071;28;20082;-79
2022/05/13 02:33:04;;;;;;;4.53;3.33;;;;;;;-141.50;100.00;63355.56;5096024;28;20047;-82
2022/05/13 02:35:30;;;;;;;5.93;3.58;;;;;;;-141.50;100.00;63355.56;5076150;28;20126;-84
2022/05/13 02:37:57;;;;;;;9.63;3.60;;;;;;;-141.50;100.00;63355.56;5095003;28;20567;-82
2022/05/13 02:41:11;;;;;;;10.82;4.03;;;;;;;-141.50;100.00;63355.56;5078041;28;20083;-84
2022/05/13 02:43:13;;;;;;;6.65;3.63;;;;;;;-141.50;100.00;63355.56;5110831;28;20076;-84
2022/05/13 02:45:40;;;;;;;6.38;3.45;;;;;;;-141.50;100.00;63355.56;5107248;28;20052;-83
2022/05/13 02:48:07;;;;;;;5.03;3.08;;;;;;;-141.50;100.00;63355.56;5098281;28;20100;-85
2022/05/13 02:50:37;;;;;;;7.15;3.47;;;;;;;-141.50;100.00;63355.56;5098101;28;20051;-85
2022/05/13 02:53:04;;;;;;;7.20;3.17;;;;;;;-141.50;100.00;63355.56;5091511;28;20044;-83
2022/05/13 02:55:30;;;;;;;7.30;3.10;;;;;;;-141.50;100.00;63355.56;5083309;28;20098;-83
2022/05/13 02:57:57;;;;;;;5.07;2.97;;;;;;;-141.50;100.00;63355.56;5081576;28;20078;-82
2022/05/13 03:00:24;;;;;;;9.57;3.40;;;;;;;-141.50;100.00;63355.56;5078882;28;20047;-81
2022/05/13 03:02:50;;;;;;;4.50;3.22;;;;;;;-141.50;100.00;63355.56;5096307;28;20076;-83
2022/05/13 03:05:17;;;;;;;5.93;3.22;;;;;;;-141.50;100.00;63355.56;5096370;28;20048;-84
2022/05/13 03:07:44;;;;;;;5.50;2.83;;;;;;;-141.50;100.00;63355.56;5094933;28;20154;-83
2022/05/13 03:10:11;;;;;;;6.40;3.05;;;;;;;-141.50;100.00;63355.56;5076189;28;20059;-83
2022/05/13 03:12:39;;;;;;;6.22;3.50;;;;;;;-141.50;100.00;63355.56;5077359;28;20044;-81
2022/05/13 03:15:07;;;;;;;5.78;3.55;;;;;;;-141.50;100.00;63355.56;5082639;28;20056;-82
2022/05/13 03:17:36;;;;;;;5.20;3.40;;;;;;;-141.50;100.00;63355.56;5071868;28;20584;-83
2022/05/13 03:20:05;;;;;;;6.50;3.25;;;;;;;-141.50;100.00;63355.56;5100580;28;20054;-83
2022/05/13 03:22:32;;;;;;;9.13;4.03;;;;;;;-141.50;100.00;63355.56;5103561;28;20043;-81
2022/05/13 03:24:59;;;;;;;8.95;3.67;;;;;;;-141.50;100.00;63355.56;5094393;28;20074;-81
2022/05/13 03:27:27;;;;;;;8.93;3.78;;;;;;;-141.50;100.00;63355.56;5093442;28;20047;-80
2022/05/13 03:29:53;;;;;;;6.50;3.60;;;;;;;-141.50;100.00;63355.56;5072872;28;20465;-81
2022/05/13 03:32:20;;;;;;;6.72;3.30;;;;;;;-141.50;100.00;63355.56;5094170;28;20512;-79
2022/05/13 03:34:47;;;;;;;10.07;3.30;;;;;;;-141.50;100.00;63355.56;5089796;28;20048;-81
2022/05/13 03:37:14;;;;;;;6.05;3.00;;;;;;;-141.50;100.00;63355.56;5080846;28;20064;-84
2022/05/13 03:39:41;;;;;;;11.05;3.10;;;;;;;-141.50;100.00;63355.56;5073150;28;20049;-83
2022/05/13 03:42:09;;;;;;;9.35;3.10;;;;;;;-141.50;100.00;63355.56;5073083;28;20044;-83
2022/05/13 03:44:36;;;;;;;5.70;3.10;;;;;;;-141.50;100.00;63355.56;5070512;28;20060;-81
2022/05/13 03:47:04;;;;;;;6.00;3.10;;;;;;;-141.50;100.00;63355.56;5086565;28;20519;-81
2022/05/13 03:49:31;;;;;;;9.75;3.35;;;;;;;-141.50;100.00;63355.56;5091178;28;20058;-81
2022/05/13 03:51:57;;;;;;;7.38;3.38;;;;;;;-141.50;100.00;63355.56;5082498;28;20476;-83
2022/05/13 03:54:24;;;;;;;9.15;3.53;;;;;;;-141.50;100.00;63355.56;5086043;28;20048;-81
2022/05/13 03:56:50;;;;;;;6.15;3.60;;;;;;;-141.50;100.00;63355.56;5072439;28;20043;-83
2022/05/13 03:59:17;;;;;;;6.60;3.45;;;;;;;-141.50;100.00;63355.56;5076392;28;20570;-83
2022/05/13 04:01:43;;;;;;;5.45;2.97;;;;;;;-141.50;100.00;63355.56;5059245;28;20049;-83
2022/05/13 04:04:10;;;;;;;6.65;3.50;;;;;;;-141.50;100.00;63355.56;5058358;28;20139;-82
2022/05/13 04:09:30;;;;;;;6.40;3.25;;;;;;;-141.50;100.00;63355.56;5077605;28;20076;-83
2022/05/13 04:17:35;;;;;;;8.73;3.70;;;;;;;-141.50;100.00;63355.56;5075853;28;20056;-82
2022/05/13 04:20:04;;;;;;;6.35;3.50;;;;;;;-141.50;100.00;63355.56;5058123;28;20052;-83
2022/05/13 04:22:31;;;;;;;7.28;3.13;;;;;;;-141.50;100.00;63355.56;5058608;28;20479;-85
2022/05/13 04:24:58;;;;;;;4.70;3.38;;;;;;;-141.50;100.00;63355.56;5093079;28;20123;-84
2022/05/13 04:27:25;;;;;;;6.30;3.33;;;;;;;-141.50;100.00;63355.56;5094208;28;20113;-83
2022/05/13 04:29:52;;;;;;;5.70;3.60;;;;;;;-141.50;100.00;63355.56;5094905;28;20149;-83
2022/05/13 04:32:19;;;;;;;6.85;3.53;;;;;;;-141.50;100.00;63355.56;5097702;28;20074;-82
2022/05/13 04:34:46;;;;;;;9.60;3.65;;;;;;;-141.50;100.00;63355.56;5080605;28;20052;-82
2022/05/13 04:37:12;;;;;;;7.72;4.13;;;;;;;-141.50;100.00;63355.56;5080959;28;20044;-82
2022/05/13 04:39:39;;;;;;;8.30;3.80;;;;;;;-141.50;100.00;63355.56;5099506;28;20368;-83
2022/05/13 04:44:51;;;;;;;9.10;4.00;;;;;;;-141.50;100.00;63355.56;5099749;28;20056;-83
2022/05/13 04:50:03;;;;;;;10.73;3.70;;;;;;;-141.50;100.00;63355.56;5103780;28;20048;-84
2022/05/13 04:52:30;;;;;;;10.07;4.18;;;;;;;-141.50;100.00;63355.56;5095933;28;20048;-84
2022/05/13 04:54:56;;;;;;;8.30;3.70;;;;;;;-141.50;100.00;63355.56;5089176;28;20044;-84
2022/05/13 04:57:24;;;;;;;5.97;3.50;;;;;;;-141.50;100.00;63355.56;5093833;28;20052;-84
2022/05/13 04:59:51;;;;;;;6.40;3.30;;;;;;;-141.50;100.00;63355.56;5077399;28;20051;-79
2022/05/13 05:02:17;;;;;;;8.27;3.78;;;;;;;-141.50;100.00;63355.56;5103855;28;20070;-81
2022/05/13 05:04:44;;;;;;;7.10;3.45;;;;;;;-141.50;100.00;63355.56;5074863;28;20056;-82
2022/05/13 05:07:11;;;;;;;5.70;3.28;;;;;;;-141.50;100.00;63355.56;5077169;28;20070;-80
2022/05/13 05:09:39;;;;;;;5.50;3.10;;;;;;;-141.50;100.00;63355.56;5063474;28;1098295;-81
2022/05/13 05:12:08;;;;;;;10.35;3.60;;;;;;;-141.50;100.00;63355.56;5081118;28;20055;-82
2022/05/13 05:14:35;;;;;;;8.77;3.78;;;;;;;-141.50;100.00;63355.56;5098420;28;20052;-82
2022/05/13 05:17:01;;;;;;;7.82;3.75;;;;;;;-141.50;100.00;63355.56;5081374;28;20082;-82
2022/05/13 05:19:28;;;;;;;15.43;3.83;;;;;;;-141.50;100.00;63355.56;5074571;28;20140;-83
2022/05/13 05:21:55;;;;;;;8.70;3.88;;;;;;;-141.50;100.00;63355.56;5071591;28;20083;-83
2022/05/13 05:24:21;;;;;;;7.82;3.90;;;;;;;-141.50;100.00;63355.56;5062913;28;20155;-84
2022/05/13 05:26:48;;;;;;;13.15;4.15;;;;;;;-141.50;100.00;63355.56;5083154;28;20052;-82
2022/05/13 05:29:16;;;;;;;11.93;3.58;;;;;;;-141.50;100.00;63355.56;5092551;28;20060;-82
2022/05/13 05:31:42;;;;;;;14.45;3.13;;;;;;;-141.50;100.00;63355.56;5092297;28;20055;-83
2022/05/13 05:34:10;;;;;;;13.82;3.58;;;;;;;-141.50;100.00;63355.56;5080069;28;20657;-84
2022/05/13 05:36:37;;;;;;;8.82;2.65;;;;;;;-141.50;100.00;63355.56;5074275;28;20092;-84
2022/05/13 05:39:04;;;;;;;8.70;3.10;;;;;;;-141.50;100.00;63355.56;5075232;28;20052;-81
2022/05/13 05:41:31;;;;;;;11.68;3.17;;;;;;;-141.50;100.00;63355.56;5076084;28;20500;-83
2022/05/13 05:43:57;;;;;;;10.48;3.10;;;;;;;-141.50;100.00;63355.56;5083300;28;20048;-82
2022/05/13 05:46:24;;;;;;;5.18;2.67;;;;;;;-141.50;100.00;63355.56;5094934;28;20075;-83
2022/05/13 05:48:50;;;;;;;12.02;3.08;;;;;;;-141.50;100.00;63355.56;5073319;28;20064;-82
2022/05/13 05:51:17;;;;;;;8.45;3.05;;;;;;;-141.50;100.00;63355.56;5072902;28;20157;-83
2022/05/13 05:59:14;;;;;;;7.80;2.70;;;;;;;-141.50;100.00;63355.56;5089106;28;20461;-80
2022/05/13 06:01:41;;;;;;;7.07;2.42;;;;;;;-141.50;100.00;63355.56;5072253;28;20057;-82
2022/05/13 06:04:08;;;;;;;14.27;2.60;;;;;;;-141.50;100.00;63355.56;5063908;28;20127;-82
2022/05/13 06:06:34;;;;;;;8.48;2.50;;;;;;;-141.50;100.00;63355.56;5073998;28;20056;-83
2022/05/13 06:09:01;;;;;;;8.70;2.20;;;;;;;-141.50;100.00;63355.56;5073337;28;20075;-84
2022/05/13 06:11:28;;;;;;;6.45;2.25;;;;;;;-141.50;100.00;63355.56;5093001;28;20134;-84
2022/05/13 06:13:57;;;;;;;8.90;2.42;;;;;;;-141.50;100.00;63355.56;5055638;28;20040;-81
2022/05/13 06:16:27;;;;;;;6.38;2.45;;;;;;;-141.50;100.00;63355.56;5059371;28;20080;-84
2022/05/13 06:18:54;;;;;;;12.90;2.70;;;;;;;-141.50;100.00;63355.56;5059441;28;20477;-82
2022/05/13 06:21:21;;;;;;;9.05;2.20;;;;;;;-141.50;100.00;63355.56;5073865;28;20049;-80
2022/05/13 06:23:47;;;;;;;14.48;2.25;;;;;;;-141.50;100.00;63355.56;5059670;28;20040;-81
2022/05/13 06:26:14;;;;;;;6.38;2.15;;;;;;;-141.50;100.00;63355.56;5073274;28;20090;-79
2022/05/13 06:28:40;;;;;;;7.57;2.20;;;;;;;-141.50;100.00;63355.56;5073547;28;20140;-80
2022/05/13 06:31:07;;;;;;;5.78;2.00;;;;;;;-141.50;100.00;63355.56;5056308;28;20056;-80
2022/05/13 06:33:34;;;;;;;7.82;2.40;;;;;;;-141.50;100.00;63355.56;5086281;28;20075;-79
2022/05/13 06:36:00;;;;;;;8.27;2.00;;;;;;;-141.50;100.00;63355.56;5082109;28;20052;-81
2022/05/13 06:38:27;;;;;;;6.00;2.00;;;;;;;-141.50;100.00;63355.56;5076494;28;20083;-82
2022/05/13 06:40:54;;;;;;;8.80;2.10;;;;;;;-141.50;100.00;63355.56;5081038;28;20049;-82
2022/05/13 06:43:23;;;;;;;8.07;1.95;;;;;;;-141.50;100.00;63355.56;5071941;28;20052;-79
2022/05/13 06:45:50;;;;;;;6.10;2.10;;;;;;;-141.50;100.00;63355.56;5073444;28;20048;-81
2022/05/13 06:48:18;;;;;;;8.18;2.30;;;;;;;-141.50;100.00;63355.56;5092547;28;20127;-80
2022/05/13 06:50:46;;;;;;;8.93;2.13;;;;;;;-141.50;100.00;63355.56;5075168;28;20044;-79
2022/05/13 06:53:13;;;;;;;6.00;2.25;;;;;;;-141.50;100.00;63355.56;5093049;28;20052;-79
2022/05/13 06:55:42;;;;;;;7.50;2.20;;;;;;;-141.50;100.00;63355.56;5094275;28;20852;-79
2022/05/13 06:58:12;;;;;;;11.18;2.20;;;;;;;-141.50;100.00;63355.56;5102527;28;20455;-79
2022/05/13 07:00:41;;;;;;;7.88;2.17;;;;;;;-141.50;100.00;63355.56;5096983;28;20078;-80
2022/05/13 07:03:17;;;;;;;5.93;1.88;;;;;;;-141.50;100.00;63355.56;5077930;28;20109;-80
2022/05/13 07:05:44;;;;;;;6.57;2.38;;;;;;;-141.50;100.00;63355.56;5091216;28;20054;-82
2022/05/13 07:08:30;;;;;;;11.57;2.50;;;;;;;-141.50;100.00;63355.56;5054933;28;20075;-81
2022/05/13 07:10:57;;;;;;;12.82;2.08;;;;;;;-141.50;100.00;63355.56;5053214;28;20079;-76
2022/05/13 07:13:24;;;;;;;5.25;2.10;;;;;;;-141.50;100.00;63355.56;5054769;28;20159;-81
2022/05/13 07:15:51;;;;;;;8.02;1.90;;;;;;;-141.50;100.00;63355.56;5076396;28;20239;-80
2022/05/13 07:18:18;;;;;;;5.45;2.33;;;;;;;-141.50;100.00;63355.56;5074138;28;20045;-78
2022/05/13 07:20:44;;;;;;;6.47;2.10;;;;;;;-141.50;100.00;63355.56;5099049;28;20044;-78
2022/05/13 07:23:11;;;;;;;6.28;2.25;;;;;;;-141.50;100.00;63355.56;5085222;28;20048;-79
2022/05/13 07:25:38;;;;;;;8.18;2.15;;;;;;;-141.50;100.00;63355.56;5093972;28;20044;-80
2022/05/13 07:28:04;;;;;;;6.82;2.33;;;;;;;-141.50;100.00;63355.56;5076031;28;20052;-81
2022/05/13 07:30:31;;;;;;;8.48;2.35;;;;;;;-141.50;100.00;63355.56;5092944;28;20626;-76
2022/05/13 07:32:58;;;;;;;7.10;2.33;;;;;;;-141.50;100.00;63355.56;5073916;28;20040;-79
2022/05/13 07:35:24;;;;;;;12.88;3.25;;;;;;;-141.50;100.00;63355.56;5092903;28;20070;-78
2022/05/13 07:37:51;;;;;;;8.98;2.35;;;;;;;-141.50;100.00;63355.56;5094643;28;20056;-80
2022/05/13 07:43:03;;;;;;;11.97;2.33;;;;;;;-141.50;100.00;63355.56;5094598;28;20492;-78
2022/05/13 07:45:31;;;;;;;9.07;2.78;;;;;;;-141.50;100.00;63355.56;5096055;28;20052;-78
2022/05/13 07:47:58;;;;;;;9.63;2.28;;;;;;;-141.50;100.00;63355.56;5074631;28;20060;-78
2022/05/13 07:50:24;;;;;;;10.07;2.42;;;;;;;-141.50;100.00;63355.56;5102390;28;20470;-79
2022/05/13 07:52:51;;;;;;;7.88;2.08;;;;;;;-141.50;100.00;63355.56;5075262;28;20115;-80
2022/05/13 07:55:18;;;;;;;10.85;2.47;;;;;;;-141.50;100.00;63355.56;5076294;28;20127;-80
2022/05/13 07:57:46;;;;;;;11.05;2.67;;;;;;;-141.50;100.00;63355.56;5075092;28;20084;-79
2022/05/13 08:00:25;;;;;;;7.25;2.40;;;;;;;-141.50;100.00;63355.56;5092977;28;20048;-79
2022/05/13 08:02:55;;;;;;;7.78;2.53;;;;;;;-141.50;100.00;63355.56;5076784;28;20098;-80
2022/05/13 08:05:22;;;;;;;9.27;2.67;;;;;;;-141.50;100.00;63355.56;5095961;28;20044;-79
2022/05/13 08:07:57;;;;;;;10.65;2.83;;;;;;;-141.50;100.00;63355.56;5091645;28;20105;-82
2022/05/13 08:10:24;;;;;;;7.60;2.35;;;;;;;-141.50;100.00;63355.56;5054050;28;20118;-80
2022/05/13 08:12:51;;;;;;;7.22;2.08;;;;;;;-141.50;100.00;63355.56;5053902;28;20471;-80
2022/05/13 08:15:17;;;;;;;8.18;2.30;;;;;;;-141.50;100.00;63355.56;5070606;28;20616;-79
2022/05/13 08:17:44;;;;;;;7.18;2.30;;;;;;;-141.50;100.00;63355.56;5052224;28;20438;-79
2022/05/13 08:20:10;;;;;;;8.35;2.33;;;;;;;-141.50;100.00;63355.56;5070303;28;20080;-78
2022/05/13 08:22:37;;;;;;;13.48;2.35;;;;;;;-141.50;100.00;63355.56;5053905;28;20048;-78
2022/05/13 08:25:05;;;;;;;7.93;2.38;;;;;;;-141.50;100.00;63355.56;5072020;28;20048;-79
2022/05/13 08:27:34;;;;;;;7.32;2.58;;;;;;;-141.50;100.00;63355.56;5075173;28;20098;-77
2022/05/13 08:30:02;;;;;;;11.43;2.20;;;;;;;-141.50;100.00;63355.56;5072995;28;20048;-80
2022/05/13 08:32:29;;;;;;;9.55;2.70;;;;;;;-141.50;100.00;63355.56;5070909;28;20131;-78
2022/05/13 08:34:56;;;;;;;8.07;2.60;;;;;;;-141.50;100.00;63355.56;5071110;28;20084;-78
2022/05/13 08:37:46;;;;;;;9.85;2.40;;;;;;;-141.50;100.00;63355.56;5086433;28;20048;-79
2022/05/13 08:40:38;;;;;;;8.35;1.90;;;;;;;-141.50;100.00;63355.56;5084665;28;20048;-76
2022/05/13 08:43:14;;;;;;;14.65;2.88;;;;;;;-141.50;100.00;63355.56;5081902;28;20064;-77
2022/05/13 08:45:54;;;;;;;11.18;2.13;;;;;;;-141.50;100.00;63355.56;5078067;28;20315;-79
2022/05/13 08:48:33;;;;;;;7.63;2.22;;;;;;;-141.50;100.00;63355.56;5073636;28;20121;-78
2022/05/13 08:51:17;;;;;;;13.85;2.28;;;;;;;-141.50;100.00;63355.56;5056902;28;20053;-78
2022/05/13 08:54:06;;;;;;;10.50;2.05;;;;;;;-141.50;100.00;63355.56;5058149;28;20048;-82
2022/05/13 08:56:34;;;;;;;13.15;2.33;;;;;;;-141.50;100.00;63355.56;5075724;28;20055;-79
2022/05/13 08:59:09;;;;;;;6.55;2.17;;;;;;;-141.50;100.00;63355.56;5077319;28;20114;-76
2022/05/13 09:01:42;;;;;;;8.18;2.40;;;;;;;-141.50;100.00;63355.56;5078871;28;20099;-77
2022/05/13 09:04:37;;;;;;;13.35;2.35;;;;;;;-141.50;100.00;63355.56;5059115;28;20057;-80
2022/05/13 09:07:12;;;;;;;6.32;2.10;;;;;;;-141.50;100.00;63355.56;5077445;28;20052;-78
2022/05/13 09:09:42;;;;;;;8.02;2.30;;;;;;;-141.50;100.00;63355.56;5078935;28;20052;-78
2022/05/13 09:12:23;;;;;;;9.38;2.25;;;;;;;-141.50;100.00;63355.56;5084789;28;20049;-79
2022/05/13 09:15:28;;;;;;;10.07;2.20;;;;;;;-141.50;100.00;63355.56;5104844;28;20036;-78
2022/05/13 09:18:22;;;;;;;6.28;1.95;;;;;;;-141.50;100.00;63355.56;5077596;28;20072;-80
2022/05/13 09:20:54;;;;;;;5.78;1.88;;;;;;;-141.50;100.00;63355.56;5073607;28;20429;-77
2022/05/13 09:23:21;;;;;;;9.20;2.20;;;;;;;-141.50;100.00;63355.56;5056574;28;20547;-78
2022/05/13 09:26:10;;;;;;;9.77;1.90;;;;;;;-141.50;100.00;63355.56;5075830;28;20056;-78
2022/05/13 09:29:22;;;;;;;11.50;1.88;;;;;;;-141.50;100.00;63355.56;5074216;28;20057;-77
2022/05/13 09:32:00;;;;;;;6.95;1.63;;;;;;;-141.50;100.00;63355.56;5072336;28;20057;-80
2022/05/13 09:34:32;;;;;;;13.40;2.10;;;;;;;-141.50;100.00;63355.56;5064146;28;20116;-79
2022/05/13 09:37:11;;;;;;;6.50;1.83;;;;;;;-141.50;100.00;63355.56;5076051;28;20059;-80
2022/05/13 09:39:44;;;;;;;7.25;1.45;;;;;;;-141.50;100.00;63355.56;5056661;28;20049;-79
2022/05/13 09:42:35;;;;;;;11.82;2.10;;;;;;;-141.50;100.00;63355.56;5073753;28;20066;-79
2022/05/13 09:45:15;;;;;;;9.18;1.63;;;;;;;-141.50;100.00;63355.56;5056062;28;20040;-79
2022/05/13 09:47:44;;;;;;;7.80;1.85;;;;;;;-141.50;100.00;63355.56;5058433;28;20115;-77
2022/05/13 09:50:25;;;;;;;7.93;1.85;;;;;;;-141.50;100.00;63355.56;5082011;28;20052;-80
2022/05/13 09:52:52;;;;;;;12.60;1.80;;;;;;;-141.50;100.00;63355.56;5065637;28;20063;-78
2022/05/13 09:55:31;;;;;;;7.20;1.55;;;;;;;-141.50;100.00;63355.56;5075919;28;20094;-79
2022/05/13 09:58:01;;;;;;;13.65;1.77;;;;;;;-141.50;100.00;63355.56;5095108;28;20070;-79
2022/05/13 10:00:31;;;;;;;8.75;1.50;;;;;;;-141.50;100.00;63355.56;5075814;28;20091;-78
2022/05/13 10:03:36;;;;;;;10.13;1.90;;;;;;;-141.50;100.00;63355.56;5073946;28;20130;-77
2022/05/13 10:06:17;;;;;;;5.07;1.48;;;;;;;-141.50;100.00;63355.56;5059222;28;20599;-79
2022/05/13 10:08:54;;;;;;;9.35;1.52;;;;;;;-141.50;100.00;63355.56;5106010;28;20043;-77
2022/05/13 10:14:28;;;;;;;10.02;1.40;;;;;;;-141.50;100.00;63355.56;5117518;28;20059;-78
2022/05/13 10:17:00;;;;;;;9.10;1.40;;;;;;;-141.50;100.00;63355.56;5089936;28;20097;-76
2022/05/13 10:19:41;;;;;;;9.90;1.95;;;;;;;-141.50;100.00;63355.56;5060133;28;20582;-77
2022/05/13 10:22:22;;;;;;;5.13;1.50;;;;;;;-141.50;100.00;63355.56;5060845;28;20124;-78
2022/05/13 10:24:55;;;;;;;3.72;1.30;;;;;;;-141.50;100.00;63355.56;5081432;28;20080;-79
2022/05/13 10:27:28;;;;;;;4.55;1.50;;;;;;;-141.50;100.00;63355.56;5067157;28;20098;-78
2022/05/13 10:30:02;;;;;;;9.43;1.60;;;;;;;-141.50;100.00;63355.56;5060537;28;20052;-80
2022/05/13 10:33:07;;;;;;;9.82;1.80;;;;;;;-141.50;100.00;63355.56;5089988;28;20044;-77
2022/05/13 10:35:50;;;;;;;9.07;1.60;;;;;;;-141.50;100.00;63355.56;5085803;28;20044;-79
2022/05/13 10:38:30;;;;;;;8.38;1.50;;;;;;;-141.50;100.00;63355.56;5055394;28;20128;-78
2022/05/13 10:41:23;;;;;;;8.07;1.35;;;;;;;-141.50;100.00;63355.56;5092640;28;20067;-79
2022/05/13 10:43:56;;;;;;;4.53;1.40;;;;;;;-141.50;100.00;63355.56;5053653;28;20044;-80
2022/05/13 10:46:26;;;;;;;11.73;1.48;;;;;;;-141.50;100.00;63355.56;5079417;28;20141;-77
2022/05/13 10:49:14;;;;;;;5.00;1.20;;;;;;;-141.50;100.00;63355.56;5066929;28;20538;-81
2022/05/13 10:52:05;;;;;;;7.00;1.40;;;;;;;-141.50;100.00;63355.56;5093154;28;20112;-78
2022/05/13 10:54:52;;;;;;;7.63;1.30;;;;;;;-141.50;100.00;63355.56;5075414;28;20113;-77
2022/05/13 10:57:33;;;;;;;8.65;1.50;;;;;;;-141.50;100.00;63355.56;5069543;28;20060;-78
2022/05/13 11:00:06;;;;;;;4.75;1.30;;;;;;;-141.50;100.00;63355.56;5074080;28;20083;-77
2022/05/13 11:03:23;;;;;;;8.65;1.52;;;;;;;-141.50;100.00;63355.56;5082770;28;20057;-78
2022/05/13 11:05:53;;;;;;;6.57;1.40;;;;;;;-141.50;100.00;63355.56;5015356;28;20067;-76
2022/05/13 11:09:02;;;;;;;6.43;1.17;;;;;;;-141.50;100.00;63355.56;5079765;28;20048;-79
2022/05/13 11:11:44;;;;;;;6.80;1.35;;;;;;;-141.50;100.00;63355.56;5053759;28;20052;-78
2022/05/13 11:14:35;;;;;;;5.90;1.23;;;;;;;-141.50;100.00;63355.56;5068626;28;20051;-77
2022/05/13 11:17:16;;;;;;;11.85;1.38;;;;;;;-141.50;100.00;63355.56;5083913;28;20147;-78
2022/05/13 11:19:58;;;;;;;12.85;1.50;;;;;;;-141.50;100.00;63355.56;5094917;28;20063;-77
2022/05/13 11:22:36;;;;;;;6.03;1.50;;;;;;;-141.50;100.00;63355.56;5098541;28;20086;-80
2022/05/13 11:28:08;;;;;;;5.15;1.23;;;;;;;-141.50;100.00;63355.56;5097123;28;20063;-77
2022/05/13 11:30:59;;;;;;;4.95;1.17;;;;;;;-141.50;100.00;63355.56;5099633;28;20113;-79
2022/05/13 11:33:40;;;;;;;11.80;1.50;;;;;;;-141.50;100.00;63355.56;5096754;28;20052;-79
2022/05/13 11:36:32;;;;;;;5.15;1.40;;;;;;;-141.50;100.00;63355.56;5075734;28;20060;-80
2022/05/13 11:39:27;;;;;;;7.30;1.50;;;;;;;-141.50;100.00;63355.56;5101078;28;20059;-78
2022/05/13 11:41:55;;;;;;;8.23;1.20;;;;;;;-141.50;100.00;63355.56;5101353;28;20075;-77
2022/05/13 11:45:09;;;;;;;5.05;1.23;;;;;;;-141.50;100.00;63355.56;5097028;28;20074;-80
2022/05/13 11:47:56;;;;;;;4.30;1.45;;;;;;;-141.50;100.00;63355.56;5059846;28;20095;-80
2022/05/13 11:50:28;;;;;;;13.07;1.70;;;;;;;-141.50;100.00;63355.56;5070527;28;20048;-78
2022/05/13 11:52:57;;;;;;;6.90;1.50;;;;;;;-141.50;100.00;63355.56;5058094;28;20075;-78
2022/05/13 11:55:29;;;;;;;6.88;1.50;;;;;;;-141.50;100.00;63355.56;5052350;28;20064;-78
2022/05/13 11:57:58;;;;;;;6.47;1.45;;;;;;;-141.50;100.00;63355.56;5070968;28;20048;-80
2022/05/13 12:00:31;;;;;;;8.45;1.90;;;;;;;-141.50;100.00;63355.56;5071156;28;20530;-79